Flight Track Log - Related Links

Times and Time Zones

All times are in EDT time to prevent confusion due to time zone crossing. See the ASQ4577 flight status page for this flight to view local times or setup timezone preferences in your user account.

Time Position Orientation Groundspeed Altitude Reporting Facility
EDT Latitude Longitude Course Direction KTS MPH feet Rate Location/Type
Wed 08:01:54 PM 41.3939 -81.8814 267° West 179 206 1,800  Level Cleveland Center
Wed 08:03:13 PM 41.3908 -81.9725 267° West 202 232 5,000 2,182 Climbing Cleveland Center
Wed 08:03:33 PM 41.4092 -81.9950 317° Northwest 242 278 5,400 1,889 Climbing Cleveland Center
Wed 08:04:07 PM 41.4428 -81.9736 26° Northeast 260 299 6,700 2,000 Climbing Cleveland Center
Wed 08:04:33 PM 41.4706 -81.9356 46° Northeast 316 364 7,400 1,953 Climbing Cleveland Center
Wed 08:05:33 PM 41.5214 -81.8617 47° Northeast 281 323 9,500 2,000 Climbing Cleveland Center
Wed 08:06:33 PM 41.5806 -81.7794 46° Northeast 291 335 11,400 1,650 Climbing Cleveland Center
Wed 08:07:33 PM 41.6150 -81.6719 67° East 320 368 12,800 1,200 Climbing Cleveland Center
Wed 08:08:33 PM 41.6392 -81.5361 77° East 337 388 13,800 1,050 Climbing Cleveland Center
Wed 08:09:33 PM 41.6653 -81.3975 76° East 362 417 14,900 1,050 Climbing Cleveland Center
Wed 08:10:33 PM 41.6892 -81.2478 78° East 388 447 15,900 1,050 Climbing Cleveland Center
Wed 08:11:33 PM 41.7169 -81.0922 76° East 411 473 17,000 1,050 Climbing Cleveland Center
Wed 08:12:33 PM 41.7447 -80.9394 76° East 416 479 18,000 1,050 Climbing Cleveland Center
Wed 08:13:33 PM 41.7722 -80.7781 77° East 427 491 19,100 1,050 Climbing Cleveland Center
Wed 08:14:33 PM 41.8017 -80.6194 76° East 433 498 20,100 1,050 Climbing Cleveland Center
Wed 08:15:33 PM 41.8286 -80.4578 77° East 433 498 21,200 1,050 Climbing Cleveland Center
Wed 08:16:33 PM 41.8575 -80.2933 77° East 439 505 22,200 1,000 Climbing Cleveland Center
Wed 08:17:33 PM 41.8842 -80.1258 78° East 451 519 23,200 1,050 Climbing Cleveland Center
Wed 08:18:33 PM 41.9144 -79.9497 77° East 451 519 24,300 900 Climbing Cleveland Center
Wed 08:19:33 PM 41.9406 -79.7847 78° East 446 513 25,000 350 Climbing Cleveland Center
Wed 08:20:33 PM 41.9664 -79.6253 78° East 462 532 25,000  Level Cleveland Center
Wed 08:21:33 PM 41.9939 -79.4489 78° East 474 545 25,000  Level Cleveland Center
Wed 08:22:33 PM 42.0233 -79.2639 78° East 479 551 25,000  Level Cleveland Center
Wed 08:23:33 PM 42.0522 -79.0814 78° East 491 565 25,000  Level Cleveland Center
Wed 08:24:33 PM 42.0831 -78.8961 77° East 491 565 25,000  Level Cleveland Center
Wed 08:25:33 PM 42.1094 -78.7081 79° East 496 571 25,000  Level Cleveland Center
Wed 08:26:33 PM 42.1394 -78.5194 78° East 507 583 25,000  Level Cleveland Center
Wed 08:27:33 PM 42.1672 -78.3308 79° East 507 583 25,000  Level Cleveland Center
Wed 08:28:33 PM 42.2006 -78.1222 78° East 507 583 25,000  Level Cleveland Center
Wed 08:29:33 PM 42.2275 -77.9306 79° East 507 583 25,000  Level Cleveland Center
Wed 08:30:33 PM 42.2544 -77.7442 79° East 507 583 25,000  Level Cleveland Center
Wed 08:32:08 PM 42.2983 -77.4433 79° East 507 583 25,000  Level Boston Center
Wed 08:33:08 PM 42.3233 -77.2542 80° East 507 583 25,000  Level Boston Center
Wed 08:34:08 PM 42.3500 -77.0650 79° East 507 583 25,000  Level Boston Center
Wed 08:35:20 PM 42.3819 -76.8339 79° East 512 589 25,000  Level Boston Center
Wed 08:36:20 PM 42.4058 -76.6444 80° East 512 589 25,000  Level Boston Center
Wed 08:37:20 PM 42.4336 -76.4519 79° East 517 595 25,000  Level Boston Center
Wed 08:38:20 PM 42.4569 -76.2592 81° East 523 602 25,000  Level Boston Center
Wed 08:39:20 PM 42.4814 -76.0889 79° East 523 602 25,000 -50 Level Boston Center
Wed 08:40:20 PM 42.5042 -75.8958 81° East 523 602 24,900  Descending Boston Center
Wed 08:41:20 PM 42.5286 -75.7028 80° East 517 595 25,000 -150 Climbing Boston Center
Wed 08:42:20 PM 42.5528 -75.5125 80° East 522 601 24,600 -900 Descending Boston Center
Wed 08:43:20 PM 42.5744 -75.3217 81° East 517 595 23,200 -1,900 Descending Boston Center
Wed 08:44:20 PM 42.5975 -75.1394 80° East 512 589 20,800 -2,700 Descending Boston Center
Wed 08:45:20 PM 42.6186 -74.9542 81° East 500 575 17,800 -3,071 Descending Boston Center
Wed 08:45:44 PM 42.6308 -74.8614 80° East 477 549 16,500 -3,000 Descending Boston Center
Wed 08:46:20 PM 42.6414 -74.7631 82° East 482 555 14,800 -2,618 Descending Boston Center
Wed 08:46:39 PM 42.6467 -74.7067 83° East 441 507 14,100 -2,400 Descending Boston Center
Wed 08:47:20 PM 42.6592 -74.6028 81° East 447 514 12,400 -2,700 Descending Boston Center
Wed 08:47:39 PM 42.6664 -74.5522 79° East 416 479 11,400 -1,600 Descending Boston Center
Wed 08:48:20 PM 42.6786 -74.4539 80° East 410 472 10,800 -689 Descending Boston Center
Wed 08:48:40 PM 42.6917 -74.4117 67° East 365 420 10,700 -1,000 Descending Boston Center
Wed 08:49:20 PM 42.7200 -74.3364 63° Northeast 359 413 9,800 -1,377 Descending Boston Center
Wed 08:49:41 PM 42.7331 -74.3056 60° Northeast 309 356 9,300 -1,600 Descending Boston Center
Wed 08:50:20 PM 42.7614 -74.2358 61° Northeast 312 359 8,200 -1,500 Descending Boston Center
Wed 08:50:41 PM 42.7744 -74.2022 62° Northeast 301 346 7,800 -1,400 Descending Boston Center
Wed 08:51:20 PM 42.8006 -74.1350 62° Northeast 301 346 6,800 -1,475 Descending Boston Center
Wed 08:51:42 PM 42.8133 -74.1072 58° Northeast 287 330 6,300 -1,300 Descending Boston Center
Wed 08:52:20 PM 42.8350 -74.0539 61° Northeast 285 328 5,500 -1,377 Descending Boston Center
Wed 08:52:43 PM 42.8522 -74.0119 61° Northeast 287 330 4,900 -1,600 Descending Boston Center
Wed 08:53:20 PM 42.8739 -73.9472 65° Northeast 285 328 3,900 -1,500 Descending Boston Center
Wed 08:53:43 PM 42.8889 -73.9136 59° Northeast 281 323 3,400 -1,200 Descending Boston Center
Wed 08:54:20 PM 42.8958 -73.8628 79° East 274 315 2,700 -1,082 Descending Boston Center
Wed 08:54:44 PM 42.8839 -73.8228 112° Southeast 249 287 2,300 -600 Descending Boston Center
Wed 08:55:20 PM 42.8656 -73.7856 124° Southeast 224 258 2,100 -590 Descending Boston Center
Wed 08:55:45 PM 42.8256 -73.8103 204° Southwest 180 207 1,700 -847 Descending Boston Center
Wed 08:56:45 PM 42.7861 -73.8094 179° South 120 138 900 -800 Descending Boston Center

Login

Don't have an account? Register now (free) for customized features, flight alerts, and more!